sensor_id;sensor_type;location;lat;lon;timestamp;P1;durP1;ratioP1;P2;durP2;ratioP2
80315;SDS011;71201;47.064;15.448;2024-03-23T00:55:26;5.22;;;2.53;;
80315;SDS011;71201;47.064;15.448;2024-03-23T00:57:51;7.10;;;2.70;;
80315;SDS011;71201;47.064;15.448;2024-03-23T01:00:17;5.00;;;2.60;;
80315;SDS011;71201;47.064;15.448;2024-03-23T01:02:42;6.20;;;2.65;;
80315;SDS011;71201;47.064;15.448;2024-03-23T01:05:07;5.37;;;2.77;;
80315;SDS011;71201;47.064;15.448;2024-03-23T01:07:33;8.40;;;2.60;;
80315;SDS011;71201;47.064;15.448;2024-03-23T01:09:58;4.60;;;2.73;;
80315;SDS011;71201;47.064;15.448;2024-03-23T01:12:23;5.93;;;2.70;;
80315;SDS011;71201;47.064;15.448;2024-03-23T01:14:48;5.57;;;2.80;;
80315;SDS011;71201;47.064;15.448;2024-03-23T01:17:14;4.32;;;2.70;;
80315;SDS011;71201;47.064;15.448;2024-03-23T01:19:39;7.65;;;3.00;;
80315;SDS011;71201;47.064;15.448;2024-03-23T01:22:06;5.70;;;2.70;;
80315;SDS011;71201;47.064;15.448;2024-03-23T01:24:31;6.03;;;2.90;;
80315;SDS011;71201;47.064;15.448;2024-03-23T01:26:56;4.03;;;2.43;;
80315;SDS011;71201;47.064;15.448;2024-03-23T01:29:22;5.13;;;2.90;;
80315;SDS011;71201;47.064;15.448;2024-03-23T01:31:47;4.13;;;2.42;;
80315;SDS011;71201;47.064;15.448;2024-03-23T01:34:12;4.93;;;2.57;;
80315;SDS011;71201;47.064;15.448;2024-03-23T01:36:37;5.73;;;2.70;;
80315;SDS011;71201;47.064;15.448;2024-03-23T01:39:03;5.15;;;2.67;;
80315;SDS011;71201;47.064;15.448;2024-03-23T01:41:29;4.65;;;2.80;;
80315;SDS011;71201;47.064;15.448;2024-03-23T01:43:54;4.47;;;2.63;;
80315;SDS011;71201;47.064;15.448;2024-03-23T01:46:20;6.18;;;2.63;;
80315;SDS011;71201;47.064;15.448;2024-03-23T01:48:45;5.55;;;3.20;;
80315;SDS011;71201;47.064;15.448;2024-03-23T01:51:11;4.45;;;3.00;;
80315;SDS011;71201;47.064;15.448;2024-03-23T01:53:36;7.18;;;3.40;;
80315;SDS011;71201;47.064;15.448;2024-03-23T01:56:01;7.22;;;3.40;;
80315;SDS011;71201;47.064;15.448;2024-03-23T01:58:27;4.25;;;2.58;;
80315;SDS011;71201;47.064;15.448;2024-03-23T02:00:52;6.38;;;3.40;;
80315;SDS011;71201;47.064;15.448;2024-03-23T02:03:27;7.57;;;3.30;;
80315;SDS011;71201;47.064;15.448;2024-03-23T02:05:54;5.82;;;2.85;;
80315;SDS011;71201;47.064;15.448;2024-03-23T02:08:20;4.85;;;2.80;;
80315;SDS011;71201;47.064;15.448;2024-03-23T02:10:45;5.50;;;3.05;;
80315;SDS011;71201;47.064;15.448;2024-03-23T02:13:10;5.60;;;2.70;;
80315;SDS011;71201;47.064;15.448;2024-03-23T02:15:37;4.60;;;3.25;;
80315;SDS011;71201;47.064;15.448;2024-03-23T02:18:02;5.07;;;2.70;;
80315;SDS011;71201;47.064;15.448;2024-03-23T02:20:28;6.55;;;2.92;;
80315;SDS011;71201;47.064;15.448;2024-03-23T02:22:53;4.97;;;3.22;;
80315;SDS011;71201;47.064;15.448;2024-03-23T02:25:19;4.97;;;2.28;;
80315;SDS011;71201;47.064;15.448;2024-03-23T02:27:44;4.35;;;2.60;;
80315;SDS011;71201;47.064;15.448;2024-03-23T02:30:09;4.90;;;2.67;;
80315;SDS011;71201;47.064;15.448;2024-03-23T02:32:35;4.43;;;2.65;;
80315;SDS011;71201;47.064;15.448;2024-03-23T02:35:00;4.50;;;2.90;;
80315;SDS011;71201;47.064;15.448;2024-03-23T02:37:26;6.57;;;2.47;;
80315;SDS011;71201;47.064;15.448;2024-03-23T02:39:53;6.97;;;2.80;;
80315;SDS011;71201;47.064;15.448;2024-03-23T02:42:18;4.90;;;2.72;;
80315;SDS011;71201;47.064;15.448;2024-03-23T02:44:44;4.38;;;2.58;;
80315;SDS011;71201;47.064;15.448;2024-03-23T02:47:09;5.43;;;2.83;;
80315;SDS011;71201;47.064;15.448;2024-03-23T02:49:35;3.85;;;2.47;;
80315;SDS011;71201;47.064;15.448;2024-03-23T02:52:00;5.45;;;2.50;;
80315;SDS011;71201;47.064;15.448;2024-03-23T02:54:26;4.88;;;2.30;;
80315;SDS011;71201;47.064;15.448;2024-03-23T02:56:51;3.97;;;2.20;;
80315;SDS011;71201;47.064;15.448;2024-03-23T02:59:16;3.87;;;2.40;;
80315;SDS011;71201;47.064;15.448;2024-03-23T03:01:42;5.67;;;3.37;;
80315;SDS011;71201;47.064;15.448;2024-03-23T03:04:07;6.38;;;2.53;;
80315;SDS011;71201;47.064;15.448;2024-03-23T03:06:32;6.13;;;2.60;;
80315;SDS011;71201;47.064;15.448;2024-03-23T03:08:58;4.60;;;2.53;;
80315;SDS011;71201;47.064;15.448;2024-03-23T03:11:23;8.00;;;3.50;;
80315;SDS011;71201;47.064;15.448;2024-03-23T03:13:48;14.20;;;5.68;;
80315;SDS011;71201;47.064;15.448;2024-03-23T03:16:14;14.77;;;6.83;;
80315;SDS011;71201;47.064;15.448;2024-03-23T03:18:39;15.07;;;6.63;;
80315;SDS011;71201;47.064;15.448;2024-03-23T03:21:05;18.67;;;8.02;;
80315;SDS011;71201;47.064;15.448;2024-03-23T03:23:35;15.02;;;5.93;;
80315;SDS011;71201;47.064;15.448;2024-03-23T03:26:01;12.00;;;4.65;;
80315;SDS011;71201;47.064;15.448;2024-03-23T03:28:26;9.38;;;4.65;;
80315;SDS011;71201;47.064;15.448;2024-03-23T03:30:55;9.07;;;4.43;;
80315;SDS011;71201;47.064;15.448;2024-03-23T03:33:20;7.20;;;3.73;;
80315;SDS011;71201;47.064;15.448;2024-03-23T03:35:46;8.23;;;4.23;;
80315;SDS011;71201;47.064;15.448;2024-03-23T03:38:11;8.47;;;3.30;;
80315;SDS011;71201;47.064;15.448;2024-03-23T03:40:36;7.53;;;2.90;;
80315;SDS011;71201;47.064;15.448;2024-03-23T03:43:01;3.92;;;2.67;;
80315;SDS011;71201;47.064;15.448;2024-03-23T03:45:27;4.67;;;2.70;;
80315;SDS011;71201;47.064;15.448;2024-03-23T03:47:52;4.67;;;2.50;;
80315;SDS011;71201;47.064;15.448;2024-03-23T03:50:17;5.40;;;2.90;;
80315;SDS011;71201;47.064;15.448;2024-03-23T03:52:42;4.75;;;2.95;;
80315;SDS011;71201;47.064;15.448;2024-03-23T03:55:12;5.00;;;2.80;;
80315;SDS011;71201;47.064;15.448;2024-03-23T03:57:37;5.22;;;2.90;;
80315;SDS011;71201;47.064;15.448;2024-03-23T04:00:03;4.15;;;2.60;;
80315;SDS011;71201;47.064;15.448;2024-03-23T04:02:29;3.95;;;2.50;;
80315;SDS011;71201;47.064;15.448;2024-03-23T04:04:54;5.07;;;3.00;;
80315;SDS011;71201;47.064;15.448;2024-03-23T04:07:19;6.03;;;3.20;;
80315;SDS011;71201;47.064;15.448;2024-03-23T04:09:47;5.03;;;2.95;;
80315;SDS011;71201;47.064;15.448;2024-03-23T04:12:13;4.60;;;2.88;;
80315;SDS011;71201;47.064;15.448;2024-03-23T04:14:38;7.30;;;2.63;;
80315;SDS011;71201;47.064;15.448;2024-03-23T04:17:03;4.53;;;2.63;;
80315;SDS011;71201;47.064;15.448;2024-03-23T04:19:28;4.93;;;2.72;;
80315;SDS011;71201;47.064;15.448;2024-03-23T04:21:54;5.00;;;2.80;;
80315;SDS011;71201;47.064;15.448;2024-03-23T04:24:19;5.20;;;2.90;;
80315;SDS011;71201;47.064;15.448;2024-03-23T04:26:46;4.93;;;2.35;;
80315;SDS011;71201;47.064;15.448;2024-03-23T04:29:11;6.07;;;3.03;;
80315;SDS011;71201;47.064;15.448;2024-03-23T04:31:37;4.53;;;2.72;;
80315;SDS011;71201;47.064;15.448;2024-03-23T04:34:02;6.00;;;2.90;;
80315;SDS011;71201;47.064;15.448;2024-03-23T04:36:28;4.57;;;2.95;;
80315;SDS011;71201;47.064;15.448;2024-03-23T04:38:53;3.97;;;2.60;;
80315;SDS011;71201;47.064;15.448;2024-03-23T04:41:18;4.80;;;2.90;;
80315;SDS011;71201;47.064;15.448;2024-03-23T04:43:44;5.57;;;3.00;;
80315;SDS011;71201;47.064;15.448;2024-03-23T04:46:09;4.47;;;2.38;;
80315;SDS011;71201;47.064;15.448;2024-03-23T04:48:35;3.88;;;2.70;;
80315;SDS011;71201;47.064;15.448;2024-03-23T04:51:01;5.13;;;2.40;;
80315;SDS011;71201;47.064;15.448;2024-03-23T04:53:26;4.20;;;2.60;;
80315;SDS011;71201;47.064;15.448;2024-03-23T04:55:55;7.25;;;2.75;;
80315;SDS011;71201;47.064;15.448;2024-03-23T04:58:21;4.93;;;2.78;;
80315;SDS011;71201;47.064;15.448;2024-03-23T05:00:46;5.60;;;2.47;;
80315;SDS011;71201;47.064;15.448;2024-03-23T05:03:11;6.03;;;2.80;;
80315;SDS011;71201;47.064;15.448;2024-03-23T05:05:36;6.67;;;2.53;;
80315;SDS011;71201;47.064;15.448;2024-03-23T05:08:02;6.53;;;2.97;;
80315;SDS011;71201;47.064;15.448;2024-03-23T05:10:27;5.20;;;2.97;;
80315;SDS011;71201;47.064;15.448;2024-03-23T05:12:52;7.05;;;2.90;;
80315;SDS011;71201;47.064;15.448;2024-03-23T05:15:18;5.32;;;2.53;;
80315;SDS011;71201;47.064;15.448;2024-03-23T05:17:43;6.80;;;3.33;;
80315;SDS011;71201;47.064;15.448;2024-03-23T05:20:08;6.03;;;3.03;;
80315;SDS011;71201;47.064;15.448;2024-03-23T05:22:35;5.63;;;2.75;;
80315;SDS011;71201;47.064;15.448;2024-03-23T05:25:00;7.57;;;2.55;;
80315;SDS011;71201;47.064;15.448;2024-03-23T05:27:25;6.80;;;2.53;;
80315;SDS011;71201;47.064;15.448;2024-03-23T05:29:51;7.13;;;2.53;;
80315;SDS011;71201;47.064;15.448;2024-03-23T05:32:16;4.13;;;2.70;;
80315;SDS011;71201;47.064;15.448;2024-03-23T05:34:41;8.50;;;2.60;;
80315;SDS011;71201;47.064;15.448;2024-03-23T05:37:07;5.88;;;3.05;;
80315;SDS011;71201;47.064;15.448;2024-03-23T05:39:32;5.07;;;2.72;;
80315;SDS011;71201;47.064;15.448;2024-03-23T05:41:57;7.65;;;2.92;;
80315;SDS011;71201;47.064;15.448;2024-03-23T05:44:22;6.83;;;3.00;;
80315;SDS011;71201;47.064;15.448;2024-03-23T05:46:48;4.80;;;2.43;;
80315;SDS011;71201;47.064;15.448;2024-03-23T05:49:16;5.18;;;3.03;;
80315;SDS011;71201;47.064;15.448;2024-03-23T05:51:42;4.05;;;2.35;;
80315;SDS011;71201;47.064;15.448;2024-03-23T05:54:07;4.95;;;3.38;;
80315;SDS011;71201;47.064;15.448;2024-03-23T05:56:33;7.13;;;3.03;;
80315;SDS011;71201;47.064;15.448;2024-03-23T05:58:58;3.90;;;2.72;;
80315;SDS011;71201;47.064;15.448;2024-03-23T06:01:23;7.68;;;3.20;;
80315;SDS011;71201;47.064;15.448;2024-03-23T06:03:48;6.97;;;3.67;;
80315;SDS011;71201;47.064;15.448;2024-03-23T06:06:14;10.87;;;4.20;;
80315;SDS011;71201;47.064;15.448;2024-03-23T06:08:39;9.30;;;4.40;;
80315;SDS011;71201;47.064;15.448;2024-03-23T06:11:04;9.10;;;5.22;;
80315;SDS011;71201;47.064;15.448;2024-03-23T06:13:33;7.28;;;4.45;;
80315;SDS011;71201;47.064;15.448;2024-03-23T06:15:58;9.15;;;5.13;;
80315;SDS011;71201;47.064;15.448;2024-03-23T06:18:24;9.63;;;4.72;;
80315;SDS011;71201;47.064;15.448;2024-03-23T06:20:49;7.32;;;4.60;;
80315;SDS011;71201;47.064;15.448;2024-03-23T06:23:14;7.85;;;4.32;;
80315;SDS011;71201;47.064;15.448;2024-03-23T06:25:40;9.13;;;4.97;;
80315;SDS011;71201;47.064;15.448;2024-03-23T06:28:06;13.43;;;5.43;;
80315;SDS011;71201;47.064;15.448;2024-03-23T06:30:31;8.20;;;4.30;;
80315;SDS011;71201;47.064;15.448;2024-03-23T06:32:57;7.15;;;4.57;;
80315;SDS011;71201;47.064;15.448;2024-03-23T06:35:22;8.40;;;4.13;;
80315;SDS011;71201;47.064;15.448;2024-03-23T06:37:47;10.77;;;5.18;;
80315;SDS011;71201;47.064;15.448;2024-03-23T06:40:13;8.65;;;5.07;;
80315;SDS011;71201;47.064;15.448;2024-03-23T06:42:38;10.43;;;5.07;;
80315;SDS011;71201;47.064;15.448;2024-03-23T06:45:03;7.43;;;4.73;;
80315;SDS011;71201;47.064;15.448;2024-03-23T06:47:30;6.97;;;4.13;;
80315;SDS011;71201;47.064;15.448;2024-03-23T06:49:55;7.45;;;4.72;;
80315;SDS011;71201;47.064;15.448;2024-03-23T06:52:20;9.98;;;5.45;;
80315;SDS011;71201;47.064;15.448;2024-03-23T06:54:45;8.93;;;4.93;;
80315;SDS011;71201;47.064;15.448;2024-03-23T06:57:11;8.07;;;4.40;;
80315;SDS011;71201;47.064;15.448;2024-03-23T06:59:37;11.18;;;4.78;;
80315;SDS011;71201;47.064;15.448;2024-03-23T07:02:03;8.95;;;4.72;;
80315;SDS011;71201;47.064;15.448;2024-03-23T07:04:29;10.70;;;4.90;;
80315;SDS011;71201;47.064;15.448;2024-03-23T07:06:54;8.30;;;5.55;;
80315;SDS011;71201;47.064;15.448;2024-03-23T07:09:19;8.83;;;4.37;;
80315;SDS011;71201;47.064;15.448;2024-03-23T07:11:50;10.68;;;4.85;;
80315;SDS011;71201;47.064;15.448;2024-03-23T07:14:15;10.23;;;4.78;;
80315;SDS011;71201;47.064;15.448;2024-03-23T07:16:40;13.65;;;4.40;;
80315;SDS011;71201;47.064;15.448;2024-03-23T07:19:05;8.60;;;4.15;;
80315;SDS011;71201;47.064;15.448;2024-03-23T07:21:31;9.82;;;4.40;;
80315;SDS011;71201;47.064;15.448;2024-03-23T07:23:56;8.27;;;4.30;;
80315;SDS011;71201;47.064;15.448;2024-03-23T07:26:21;5.43;;;3.00;;
80315;SDS011;71201;47.064;15.448;2024-03-23T07:28:47;8.67;;;3.77;;
80315;SDS011;71201;47.064;15.448;2024-03-23T07:31:13;10.63;;;3.28;;
80315;SDS011;71201;47.064;15.448;2024-03-23T07:33:45;8.85;;;4.32;;
80315;SDS011;71201;47.064;15.448;2024-03-23T07:36:10;11.85;;;5.28;;
80315;SDS011;71201;47.064;15.448;2024-03-23T07:38:35;13.13;;;5.72;;
80315;SDS011;71201;47.064;15.448;2024-03-23T07:41:04;14.85;;;7.32;;
80315;SDS011;71201;47.064;15.448;2024-03-23T07:43:30;11.73;;;5.97;;
80315;SDS011;71201;47.064;15.448;2024-03-23T07:45:55;11.65;;;5.85;;
80315;SDS011;71201;47.064;15.448;2024-03-23T07:48:21;11.98;;;5.43;;
80315;SDS011;71201;47.064;15.448;2024-03-23T07:50:55;9.80;;;4.78;;
80315;SDS011;71201;47.064;15.448;2024-03-23T07:53:20;11.48;;;5.45;;
80315;SDS011;71201;47.064;15.448;2024-03-23T07:55:52;9.00;;;5.28;;
80315;SDS011;71201;47.064;15.448;2024-03-23T07:58:17;11.20;;;7.05;;
80315;SDS011;71201;47.064;15.448;2024-03-23T08:00:42;21.00;;;6.37;;
80315;SDS011;71201;47.064;15.448;2024-03-23T08:03:08;8.90;;;5.13;;
80315;SDS011;71201;47.064;15.448;2024-03-23T08:05:33;10.30;;;5.28;;
80315;SDS011;71201;47.064;15.448;2024-03-23T08:07:59;13.50;;;6.38;;
80315;SDS011;71201;47.064;15.448;2024-03-23T08:10:25;11.60;;;5.00;;
80315;SDS011;71201;47.064;15.448;2024-03-23T08:12:50;12.82;;;5.47;;
80315;SDS011;71201;47.064;15.448;2024-03-23T08:15:15;10.20;;;5.27;;
80315;SDS011;71201;47.064;15.448;2024-03-23T08:17:40;10.97;;;5.90;;
80315;SDS011;71201;47.064;15.448;2024-03-23T08:20:06;11.37;;;6.10;;
80315;SDS011;71201;47.064;15.448;2024-03-23T08:22:33;11.98;;;6.35;;
80315;SDS011;71201;47.064;15.448;2024-03-23T08:24:58;11.25;;;5.65;;
80315;SDS011;71201;47.064;15.448;2024-03-23T08:27:23;9.00;;;5.40;;
80315;SDS011;71201;47.064;15.448;2024-03-23T08:29:48;10.77;;;5.97;;
80315;SDS011;71201;47.064;15.448;2024-03-23T08:32:14;17.80;;;5.97;;
80315;SDS011;71201;47.064;15.448;2024-03-23T08:34:39;9.67;;;5.17;;
80315;SDS011;71201;47.064;15.448;2024-03-23T08:37:04;9.13;;;5.43;;
80315;SDS011;71201;47.064;15.448;2024-03-23T08:39:30;8.52;;;5.82;;
80315;SDS011;71201;47.064;15.448;2024-03-23T08:41:55;12.45;;;6.00;;
80315;SDS011;71201;47.064;15.448;2024-03-23T08:44:20;11.53;;;5.97;;
80315;SDS011;71201;47.064;15.448;2024-03-23T08:46:45;11.20;;;5.72;;
80315;SDS011;71201;47.064;15.448;2024-03-23T08:49:11;10.30;;;5.63;;
80315;SDS011;71201;47.064;15.448;2024-03-23T08:51:37;7.75;;;5.20;;
80315;SDS011;71201;47.064;15.448;2024-03-23T08:54:02;11.90;;;5.60;;
80315;SDS011;71201;47.064;15.448;2024-03-23T08:56:28;15.98;;;6.13;;
80315;SDS011;71201;47.064;15.448;2024-03-23T08:58:53;10.33;;;5.83;;
80315;SDS011;71201;47.064;15.448;2024-03-23T09:01:18;13.60;;;5.67;;
80315;SDS011;71201;47.064;15.448;2024-03-23T09:03:43;9.30;;;6.00;;
80315;SDS011;71201;47.064;15.448;2024-03-23T09:06:09;7.55;;;5.55;;
80315;SDS011;71201;47.064;15.448;2024-03-23T09:08:35;9.43;;;5.80;;
80315;SDS011;71201;47.064;15.448;2024-03-23T09:11:07;9.10;;;5.53;;
80315;SDS011;71201;47.064;15.448;2024-03-23T09:13:33;9.40;;;5.32;;
80315;SDS011;71201;47.064;15.448;2024-03-23T09:15:59;7.72;;;5.32;;
80315;SDS011;71201;47.064;15.448;2024-03-23T09:18:25;10.73;;;5.70;;
80315;SDS011;71201;47.064;15.448;2024-03-23T09:20:50;8.63;;;4.50;;
80315;SDS011;71201;47.064;15.448;2024-03-23T09:23:15;9.57;;;5.27;;
80315;SDS011;71201;47.064;15.448;2024-03-23T09:25:41;7.18;;;4.95;;
80315;SDS011;71201;47.064;15.448;2024-03-23T09:28:06;8.95;;;4.80;;
80315;SDS011;71201;47.064;15.448;2024-03-23T09:30:33;9.32;;;4.68;;
80315;SDS011;71201;47.064;15.448;2024-03-23T09:32:59;8.87;;;5.17;;
80315;SDS011;71201;47.064;15.448;2024-03-23T09:35:24;10.00;;;4.20;;
80315;SDS011;71201;47.064;15.448;2024-03-23T09:37:49;9.43;;;4.28;;
80315;SDS011;71201;47.064;15.448;2024-03-23T09:40:14;8.47;;;4.30;;
80315;SDS011;71201;47.064;15.448;2024-03-23T09:42:40;8.52;;;4.30;;
80315;SDS011;71201;47.064;15.448;2024-03-23T09:45:12;6.20;;;3.80;;
80315;SDS011;71201;47.064;15.448;2024-03-23T09:47:41;8.07;;;4.35;;
80315;SDS011;71201;47.064;15.448;2024-03-23T09:50:07;8.32;;;3.83;;
80315;SDS011;71201;47.064;15.448;2024-03-23T09:52:32;8.07;;;4.13;;
80315;SDS011;71201;47.064;15.448;2024-03-23T09:54:58;5.32;;;3.03;;
80315;SDS011;71201;47.064;15.448;2024-03-23T09:57:23;6.75;;;3.85;;
80315;SDS011;71201;47.064;15.448;2024-03-23T09:59:48;5.43;;;3.47;;
80315;SDS011;71201;47.064;15.448;2024-03-23T10:02:13;6.77;;;3.67;;
80315;SDS011;71201;47.064;15.448;2024-03-23T10:04:42;5.68;;;3.33;;
80315;SDS011;71201;47.064;15.448;2024-03-23T10:07:13;6.80;;;2.92;;
80315;SDS011;71201;47.064;15.448;2024-03-23T10:09:38;6.78;;;2.80;;
80315;SDS011;71201;47.064;15.448;2024-03-23T10:12:13;5.32;;;3.75;;
80315;SDS011;71201;47.064;15.448;2024-03-23T10:14:39;5.22;;;3.35;;
80315;SDS011;71201;47.064;15.448;2024-03-23T10:17:13;4.95;;;3.55;;
80315;SDS011;71201;47.064;15.448;2024-03-23T10:19:39;5.85;;;3.15;;
80315;SDS011;71201;47.064;15.448;2024-03-23T10:22:04;4.93;;;2.67;;
80315;SDS011;71201;47.064;15.448;2024-03-23T10:24:29;7.38;;;2.83;;
80315;SDS011;71201;47.064;15.448;2024-03-23T10:26:58;5.00;;;2.80;;
80315;SDS011;71201;47.064;15.448;2024-03-23T10:29:23;7.43;;;3.17;;
80315;SDS011;71201;47.064;15.448;2024-03-23T10:31:48;4.30;;;2.47;;
80315;SDS011;71201;47.064;15.448;2024-03-23T10:34:14;5.28;;;3.05;;
80315;SDS011;71201;47.064;15.448;2024-03-23T10:36:40;5.47;;;2.95;;
80315;SDS011;71201;47.064;15.448;2024-03-23T10:39:06;7.05;;;3.30;;
80315;SDS011;71201;47.064;15.448;2024-03-23T10:41:32;4.15;;;2.92;;
80315;SDS011;71201;47.064;15.448;2024-03-23T10:43:58;5.65;;;2.90;;
80315;SDS011;71201;47.064;15.448;2024-03-23T10:46:24;6.35;;;2.70;;
80315;SDS011;71201;47.064;15.448;2024-03-23T10:48:49;4.25;;;2.75;;
80315;SDS011;71201;47.064;15.448;2024-03-23T10:51:14;3.75;;;2.15;;
80315;SDS011;71201;47.064;15.448;2024-03-23T10:53:40;3.72;;;2.67;;
80315;SDS011;71201;47.064;15.448;2024-03-23T10:56:06;4.70;;;2.47;;
80315;SDS011;71201;47.064;15.448;2024-03-23T10:58:33;4.30;;;2.08;;
80315;SDS011;71201;47.064;15.448;2024-03-23T11:01:02;6.30;;;2.17;;
80315;SDS011;71201;47.064;15.448;2024-03-23T11:03:34;7.00;;;2.53;;
80315;SDS011;71201;47.064;15.448;2024-03-23T11:06:01;4.07;;;2.25;;
80315;SDS011;71201;47.064;15.448;2024-03-23T11:08:30;4.97;;;2.38;;
80315;SDS011;71201;47.064;15.448;2024-03-23T11:11:11;4.85;;;2.72;;
80315;SDS011;71201;47.064;15.448;2024-03-23T11:13:36;5.38;;;2.65;;
80315;SDS011;71201;47.064;15.448;2024-03-23T11:16:21;4.57;;;3.13;;
80315;SDS011;71201;47.064;15.448;2024-03-23T11:18:47;3.85;;;1.95;;
80315;SDS011;71201;47.064;15.448;2024-03-23T11:21:51;4.03;;;2.38;;
80315;SDS011;71201;47.064;15.448;2024-03-23T11:24:16;3.03;;;2.40;;
80315;SDS011;71201;47.064;15.448;2024-03-23T11:26:41;6.10;;;2.58;;
80315;SDS011;71201;47.064;15.448;2024-03-23T11:29:10;5.53;;;2.55;;
80315;SDS011;71201;47.064;15.448;2024-03-23T11:31:36;3.70;;;2.30;;
80315;SDS011;71201;47.064;15.448;2024-03-23T11:34:05;4.20;;;2.60;;
80315;SDS011;71201;47.064;15.448;2024-03-23T11:36:30;5.97;;;3.50;;
80315;SDS011;71201;47.064;15.448;2024-03-23T11:38:55;6.55;;;2.92;;
80315;SDS011;71201;47.064;15.448;2024-03-23T11:41:20;3.90;;;2.97;;
80315;SDS011;71201;47.064;15.448;2024-03-23T11:43:46;5.85;;;3.05;;
80315;SDS011;71201;47.064;15.448;2024-03-23T11:46:11;4.13;;;3.10;;
80315;SDS011;71201;47.064;15.448;2024-03-23T11:48:38;5.25;;;3.20;;
80315;SDS011;71201;47.064;15.448;2024-03-23T11:51:03;4.82;;;2.70;;
80315;SDS011;71201;47.064;15.448;2024-03-23T11:53:28;4.60;;;2.92;;
80315;SDS011;71201;47.064;15.448;2024-03-23T11:55:56;5.60;;;3.00;;
80315;SDS011;71201;47.064;15.448;2024-03-23T11:58:25;5.13;;;2.78;;
80315;SDS011;71201;47.064;15.448;2024-03-23T12:01:00;5.27;;;3.50;;
80315;SDS011;71201;47.064;15.448;2024-03-23T12:03:30;7.03;;;3.42;;
80315;SDS011;71201;47.064;15.448;2024-03-23T12:05:58;4.53;;;3.42;;
80315;SDS011;71201;47.064;15.448;2024-03-23T12:08:33;4.53;;;3.53;;
80315;SDS011;71201;47.064;15.448;2024-03-23T12:11:12;5.53;;;3.70;;
80315;SDS011;71201;47.064;15.448;2024-03-23T12:13:39;4.80;;;3.28;;
80315;SDS011;71201;47.064;15.448;2024-03-23T12:16:10;4.18;;;2.88;;
80315;SDS011;71201;47.064;15.448;2024-03-23T12:18:36;6.63;;;3.22;;
80315;SDS011;71201;47.064;15.448;2024-03-23T12:21:01;5.43;;;2.95;;
80315;SDS011;71201;47.064;15.448;2024-03-23T12:23:26;5.55;;;3.35;;
80315;SDS011;71201;47.064;15.448;2024-03-23T12:25:52;5.10;;;2.90;;
80315;SDS011;71201;47.064;15.448;2024-03-23T12:28:17;6.17;;;4.53;;
80315;SDS011;71201;47.064;15.448;2024-03-23T12:30:42;7.50;;;4.17;;
80315;SDS011;71201;47.064;15.448;2024-03-23T12:33:07;6.05;;;3.58;;
80315;SDS011;71201;47.064;15.448;2024-03-23T12:35:33;5.25;;;2.97;;
80315;SDS011;71201;47.064;15.448;2024-03-23T12:37:58;5.80;;;2.92;;
80315;SDS011;71201;47.064;15.448;2024-03-23T12:40:23;7.05;;;3.08;;
80315;SDS011;71201;47.064;15.448;2024-03-23T12:42:49;7.63;;;3.30;;
80315;SDS011;71201;47.064;15.448;2024-03-23T12:45:14;6.07;;;3.13;;
80315;SDS011;71201;47.064;15.448;2024-03-23T12:47:39;5.75;;;2.47;;
80315;SDS011;71201;47.064;15.448;2024-03-23T12:50:05;4.15;;;3.15;;
80315;SDS011;71201;47.064;15.448;2024-03-23T12:52:31;2.83;;;2.03;;
80315;SDS011;71201;47.064;15.448;2024-03-23T12:54:57;3.45;;;2.47;;
80315;SDS011;71201;47.064;15.448;2024-03-23T12:57:25;4.57;;;2.90;;
80315;SDS011;71201;47.064;15.448;2024-03-23T12:59:53;3.75;;;2.13;;
80315;SDS011;71201;47.064;15.448;2024-03-23T13:02:19;5.03;;;2.65;;
80315;SDS011;71201;47.064;15.448;2024-03-23T13:04:45;3.22;;;2.00;;
80315;SDS011;71201;47.064;15.448;2024-03-23T13:07:10;5.70;;;2.85;;
80315;SDS011;71201;47.064;15.448;2024-03-23T13:09:36;3.53;;;2.17;;
80315;SDS011;71201;47.064;15.448;2024-03-23T13:12:01;3.20;;;2.15;;
80315;SDS011;71201;47.064;15.448;2024-03-23T13:14:26;3.67;;;2.10;;
80315;SDS011;71201;47.064;15.448;2024-03-23T13:16:52;4.32;;;2.13;;
80315;SDS011;71201;47.064;15.448;2024-03-23T13:19:17;3.80;;;2.47;;
80315;SDS011;71201;47.064;15.448;2024-03-23T13:21:42;3.33;;;2.00;;
80315;SDS011;71201;47.064;15.448;2024-03-23T13:24:07;7.90;;;3.03;;
80315;SDS011;71201;47.064;15.448;2024-03-23T13:26:33;5.47;;;2.78;;
80315;SDS011;71201;47.064;15.448;2024-03-23T13:28:59;3.90;;;2.42;;
80315;SDS011;71201;47.064;15.448;2024-03-23T13:31:24;4.65;;;2.15;;
80315;SDS011;71201;47.064;15.448;2024-03-23T13:33:50;5.28;;;2.20;;
80315;SDS011;71201;47.064;15.448;2024-03-23T13:36:15;3.28;;;1.80;;
80315;SDS011;71201;47.064;15.448;2024-03-23T13:38:40;4.75;;;1.98;;
80315;SDS011;71201;47.064;15.448;2024-03-23T13:41:06;7.68;;;2.55;;
80315;SDS011;71201;47.064;15.448;2024-03-23T13:43:32;5.10;;;2.67;;
80315;SDS011;71201;47.064;15.448;2024-03-23T13:45:58;4.68;;;2.95;;
80315;SDS011;71201;47.064;15.448;2024-03-23T13:48:24;6.40;;;2.42;;
80315;SDS011;71201;47.064;15.448;2024-03-23T13:50:59;5.80;;;3.03;;
80315;SDS011;71201;47.064;15.448;2024-03-23T13:53:24;10.68;;;2.90;;
80315;SDS011;71201;47.064;15.448;2024-03-23T13:55:50;3.95;;;2.10;;
80315;SDS011;71201;47.064;15.448;2024-03-23T13:58:15;5.22;;;1.85;;
80315;SDS011;71201;47.064;15.448;2024-03-23T14:00:41;3.95;;;2.35;;
80315;SDS011;71201;47.064;15.448;2024-03-23T14:03:12;4.25;;;2.60;;
80315;SDS011;71201;47.064;15.448;2024-03-23T14:05:38;6.47;;;2.85;;
80315;SDS011;71201;47.064;15.448;2024-03-23T14:08:04;3.55;;;2.60;;
80315;SDS011;71201;47.064;15.448;2024-03-23T14:10:30;4.53;;;2.75;;
80315;SDS011;71201;47.064;15.448;2024-03-23T14:12:55;3.78;;;1.98;;
80315;SDS011;71201;47.064;15.448;2024-03-23T14:15:20;3.13;;;2.13;;
80315;SDS011;71201;47.064;15.448;2024-03-23T14:17:45;4.45;;;3.00;;
80315;SDS011;71201;47.064;15.448;2024-03-23T14:20:11;4.83;;;2.67;;
80315;SDS011;71201;47.064;15.448;2024-03-23T14:22:37;5.65;;;2.70;;
80315;SDS011;71201;47.064;15.448;2024-03-23T14:25:02;5.22;;;2.40;;
80315;SDS011;71201;47.064;15.448;2024-03-23T14:27:27;5.35;;;2.40;;
80315;SDS011;71201;47.064;15.448;2024-03-23T14:29:53;5.03;;;2.53;;
80315;SDS011;71201;47.064;15.448;2024-03-23T14:32:18;3.97;;;2.20;;
80315;SDS011;71201;47.064;15.448;2024-03-23T14:34:43;5.00;;;2.70;;
80315;SDS011;71201;47.064;15.448;2024-03-23T14:37:09;4.47;;;2.70;;
80315;SDS011;71201;47.064;15.448;2024-03-23T14:39:34;5.97;;;2.88;;
80315;SDS011;71201;47.064;15.448;2024-03-23T14:42:00;4.03;;;2.45;;
80315;SDS011;71201;47.064;15.448;2024-03-23T14:44:25;4.70;;;2.55;;
80315;SDS011;71201;47.064;15.448;2024-03-23T14:46:50;4.67;;;2.67;;
80315;SDS011;71201;47.064;15.448;2024-03-23T14:49:15;4.37;;;2.23;;
80315;SDS011;71201;47.064;15.448;2024-03-23T14:51:42;4.43;;;2.20;;
80315;SDS011;71201;47.064;15.448;2024-03-23T14:54:08;5.03;;;2.45;;
80315;SDS011;71201;47.064;15.448;2024-03-23T14:56:33;5.57;;;2.47;;
80315;SDS011;71201;47.064;15.448;2024-03-23T14:58:59;4.32;;;2.33;;
80315;SDS011;71201;47.064;15.448;2024-03-23T15:01:25;5.15;;;2.55;;
80315;SDS011;71201;47.064;15.448;2024-03-23T15:03:50;5.40;;;2.45;;
80315;SDS011;71201;47.064;15.448;2024-03-23T15:06:18;4.10;;;2.60;;
80315;SDS011;71201;47.064;15.448;2024-03-23T15:08:43;4.97;;;1.98;;
80315;SDS011;71201;47.064;15.448;2024-03-23T15:11:08;4.80;;;1.83;;
80315;SDS011;71201;47.064;15.448;2024-03-23T15:13:34;4.82;;;2.03;;
80315;SDS011;71201;47.064;15.448;2024-03-23T15:16:00;5.68;;;2.60;;
80315;SDS011;71201;47.064;15.448;2024-03-23T15:18:25;6.85;;;1.30;;
80315;SDS011;71201;47.064;15.448;2024-03-23T15:23:18;4.32;;;1.10;;